createdAt,value
2023-05-22T00:01:32.481Z,100954.00
2023-05-22T00:03:59.981Z,100955.00
2023-05-22T00:06:27.676Z,100954.00
2023-05-22T00:08:54.889Z,100960.00
2023-05-22T00:11:22.776Z,100955.00
2023-05-22T00:13:49.991Z,100956.00
2023-05-22T00:16:17.240Z,100948.00
2023-05-22T00:18:44.881Z,100948.00
2023-05-22T00:21:11.977Z,100944.00
2023-05-22T00:23:39.064Z,100947.00
2023-05-22T00:26:06.059Z,100948.00
2023-05-22T00:28:33.182Z,100941.00
2023-05-22T00:31:00.271Z,100942.00
2023-05-22T00:33:27.430Z,100937.00
2023-05-22T00:35:54.457Z,100935.00
2023-05-22T00:38:33.517Z,100935.00
2023-05-22T00:41:06.932Z,100934.00
2023-05-22T00:43:34.953Z,100935.00
2023-05-22T00:46:02.277Z,100930.00
2023-05-22T00:48:29.363Z,100930.00
2023-05-22T00:50:59.229Z,100926.00
2023-05-22T00:53:29.137Z,100937.00
2023-05-22T00:55:58.799Z,100940.00
2023-05-22T00:58:27.590Z,100930.00
2023-05-22T01:00:56.199Z,100908.00
2023-05-22T01:03:27.309Z,100940.00
2023-05-22T01:05:55.721Z,100927.00
2023-05-22T01:08:22.972Z,100938.00
2023-05-22T01:11:04.467Z,100934.00
2023-05-22T01:13:55.172Z,100939.00
2023-05-22T01:16:46.813Z,100933.00
2023-05-22T01:19:48.031Z,100935.00
2023-05-22T01:22:40.910Z,100936.00
2023-05-22T01:25:35.413Z,100942.00
2023-05-22T01:28:46.904Z,100933.00
2023-05-22T01:31:18.647Z,100935.00
2023-05-22T01:33:53.136Z,100928.00
2023-05-22T01:36:24.885Z,100934.00
2023-05-22T01:38:54.398Z,100934.00
2023-05-22T01:41:22.478Z,100938.00
2023-05-22T01:43:49.758Z,100941.00
2023-05-22T01:46:17.045Z,100925.00
2023-05-22T01:48:44.069Z,100918.00
2023-05-22T01:51:50.297Z,100934.00
2023-05-22T01:54:52.799Z,100937.00
2023-05-22T01:57:30.875Z,100936.00
2023-05-22T02:00:16.161Z,100927.00
2023-05-22T02:02:51.724Z,100934.00
2023-05-22T02:05:23.324Z,100933.00
2023-05-22T02:07:51.369Z,100925.00
2023-05-22T02:10:21.316Z,100924.00
2023-05-22T02:12:48.773Z,100929.00
2023-05-22T02:15:16.742Z,100925.00
2023-05-22T02:17:45.576Z,100926.00
2023-05-22T02:20:15.752Z,100926.00
2023-05-22T02:22:47.777Z,100920.00
2023-05-22T02:25:17.248Z,100918.00
2023-05-22T02:27:47.304Z,100923.00
2023-05-22T02:30:15.990Z,100922.00
2023-05-22T02:32:43.658Z,100921.00
2023-05-22T02:35:11.022Z,100914.00
2023-05-22T02:37:38.723Z,100907.00
2023-05-22T02:40:06.718Z,100912.00
2023-05-22T02:42:34.760Z,100914.00
2023-05-22T02:45:02.783Z,100916.00
2023-05-22T02:47:29.847Z,100906.00
2023-05-22T02:49:58.098Z,100904.00
2023-05-22T02:52:25.539Z,100909.00
2023-05-22T02:54:52.896Z,100910.00
2023-05-22T02:57:19.994Z,100906.00
2023-05-22T02:59:47.107Z,100906.00
2023-05-22T03:02:15.451Z,100909.00
2023-05-22T03:04:42.708Z,100911.00
2023-05-22T03:07:10.180Z,100902.00
2023-05-22T03:09:37.434Z,100905.00
2023-05-22T03:12:05.613Z,100911.00
2023-05-22T03:14:32.564Z,100911.00
2023-05-22T03:16:59.623Z,100902.00
2023-05-22T03:19:27.034Z,100903.00
2023-05-22T03:21:54.263Z,100901.00
2023-05-22T03:24:22.157Z,100904.00
2023-05-22T03:26:49.223Z,100903.00
2023-05-22T03:29:16.301Z,100914.00
2023-05-22T03:31:43.407Z,100905.00
2023-05-22T03:34:11.043Z,100906.00
2023-05-22T03:36:38.445Z,100901.00
2023-05-22T03:39:06.501Z,100905.00
2023-05-22T03:41:33.755Z,100912.00
2023-05-22T03:44:01.231Z,100901.00
2023-05-22T03:46:28.400Z,100910.00
2023-05-22T03:48:55.695Z,100905.00
2023-05-22T03:51:22.834Z,100911.00
2023-05-22T03:53:50.012Z,100918.00
2023-05-22T03:56:17.213Z,100914.00
2023-05-22T03:58:44.308Z,100916.00
2023-05-22T04:01:13.798Z,100919.00
2023-05-22T04:03:40.907Z,100911.00
2023-05-22T04:06:08.100Z,100907.00
2023-05-22T04:08:35.479Z,100907.00
2023-05-22T04:11:03.241Z,100908.00
2023-05-22T04:13:31.460Z,100913.00
2023-05-22T04:15:58.628Z,100908.00
2023-05-22T04:18:25.936Z,100903.00
2023-05-22T04:20:52.991Z,100904.00
2023-05-22T04:23:20.156Z,100898.00
2023-05-22T04:25:48.518Z,100903.00
2023-05-22T04:28:22.338Z,100905.00
2023-05-22T04:30:49.934Z,100894.00
2023-05-22T04:33:18.304Z,100895.00
2023-05-22T04:35:45.557Z,100885.00
2023-05-22T04:38:13.200Z,100891.00
2023-05-22T04:40:40.605Z,100893.00
2023-05-22T04:43:08.525Z,100889.00
2023-05-22T04:45:35.831Z,100897.00
2023-05-22T04:48:03.286Z,100892.00
2023-05-22T04:50:32.916Z,100888.00
2023-05-22T04:53:00.653Z,100888.00
2023-05-22T04:55:27.797Z,100883.00
2023-05-22T04:57:56.399Z,100895.00
2023-05-22T05:00:26.621Z,100890.00
2023-05-22T05:02:53.853Z,100887.00
2023-05-22T05:05:21.705Z,100896.00
2023-05-22T05:07:50.428Z,100893.00
2023-05-22T05:10:18.030Z,100880.00
2023-05-22T05:12:45.478Z,100892.00
2023-05-22T05:15:12.866Z,100908.00
2023-05-22T05:17:39.986Z,100890.00
2023-05-22T05:20:08.103Z,100891.00
2023-05-22T05:22:35.300Z,100896.00
2023-05-22T05:25:03.811Z,100896.00
2023-05-22T05:27:31.242Z,100881.00
2023-05-22T05:29:58.407Z,100892.00
2023-05-22T05:32:25.732Z,100892.00
2023-05-22T05:34:53.020Z,100885.00
2023-05-22T05:37:20.380Z,100880.00
2023-05-22T05:39:47.641Z,100887.00
2023-05-22T05:42:15.005Z,100885.00
2023-05-22T05:44:42.328Z,100884.00
2023-05-22T05:47:09.492Z,100881.00
2023-05-22T05:49:36.856Z,100882.00
2023-05-22T05:52:05.228Z,100876.00
2023-05-22T05:54:32.378Z,100885.00
2023-05-22T05:56:59.814Z,100887.00
2023-05-22T05:59:27.000Z,100881.00
2023-05-22T06:01:54.057Z,100864.00
2023-05-22T06:04:21.198Z,100888.00
2023-05-22T06:06:48.255Z,100881.00
2023-05-22T06:09:15.515Z,100873.00
2023-05-22T06:11:42.623Z,100858.00
2023-05-22T06:14:10.180Z,100872.00
2023-05-22T06:16:37.374Z,100876.00
2023-05-22T06:19:04.884Z,100871.00
2023-05-22T06:21:32.278Z,100860.00
2023-05-22T06:23:59.864Z,100871.00
2023-05-22T06:26:27.823Z,100869.00
2023-05-22T06:28:54.864Z,100872.00
2023-05-22T06:31:23.506Z,100875.00
2023-05-22T06:33:52.037Z,100868.00
2023-05-22T06:36:19.279Z,100864.00
2023-05-22T06:38:46.533Z,100871.00
2023-05-22T06:41:13.784Z,100860.00
2023-05-22T06:43:40.888Z,100868.00
2023-05-22T06:46:07.981Z,100867.00
2023-05-22T06:48:36.138Z,100856.00
2023-05-22T06:51:04.259Z,100859.00
2023-05-22T06:53:31.380Z,100863.00
2023-05-22T06:55:58.622Z,100861.00
2023-05-22T06:58:26.323Z,100845.00
2023-05-22T07:00:55.289Z,100858.00
2023-05-22T07:03:23.418Z,100853.00
2023-05-22T07:05:51.821Z,100843.00
2023-05-22T07:08:18.929Z,100853.00
2023-05-22T07:10:45.997Z,100849.00
2023-05-22T07:13:13.342Z,100853.00
2023-05-22T07:15:40.455Z,100853.00
2023-05-22T07:18:09.561Z,100847.00
2023-05-22T07:20:38.528Z,100852.00
2023-05-22T07:23:05.962Z,100853.00
2023-05-22T07:25:33.133Z,100848.00
2023-05-22T07:28:02.211Z,100855.00
2023-05-22T07:30:29.732Z,100850.00
2023-05-22T07:32:56.879Z,100846.00
2023-05-22T07:35:24.516Z,100850.00
2023-05-22T07:37:51.722Z,100851.00
2023-05-22T07:40:18.827Z,100850.00
2023-05-22T07:42:45.757Z,100809.00
2023-05-22T07:45:12.902Z,100851.00
2023-05-22T07:47:40.058Z,100850.00
2023-05-22T07:50:08.164Z,100848.00
2023-05-22T07:52:35.323Z,100850.00
2023-05-22T07:55:02.383Z,100848.00
2023-05-22T07:57:32.891Z,100850.00
2023-05-22T08:00:00.104Z,100843.00
2023-05-22T08:02:27.449Z,100848.00
2023-05-22T08:04:54.653Z,100848.00
2023-05-22T08:07:21.693Z,100850.00
2023-05-22T08:09:48.746Z,100837.00
2023-05-22T08:12:15.847Z,100849.00
2023-05-22T08:14:42.931Z,100855.00
2023-05-22T08:17:10.405Z,100839.00
2023-05-22T08:19:37.488Z,100844.00
2023-05-22T08:22:05.003Z,100838.00
2023-05-22T08:24:31.991Z,100829.00
2023-05-22T08:27:00.703Z,100835.00
2023-05-22T08:29:28.854Z,100832.00
2023-05-22T08:31:57.073Z,100844.00
2023-05-22T08:34:28.471Z,100834.00
2023-05-22T08:36:55.508Z,100839.00
2023-05-22T08:39:22.763Z,100831.00
2023-05-22T08:41:50.037Z,100834.00
2023-05-22T08:44:17.355Z,100835.00
2023-05-22T08:46:47.383Z,100826.00
2023-05-22T08:49:16.106Z,100828.00
2023-05-22T08:51:48.460Z,100829.00
2023-05-22T08:54:21.605Z,100829.00
2023-05-22T08:56:56.674Z,100835.00
2023-05-22T08:59:25.175Z,100823.00
2023-05-22T09:01:54.060Z,100819.00
2023-05-22T09:04:24.326Z,100822.00
2023-05-22T09:06:53.533Z,100818.00
2023-05-22T09:09:20.624Z,100814.00
2023-05-22T09:11:47.903Z,100801.00
2023-05-22T09:14:16.397Z,100811.00
2023-05-22T09:16:51.956Z,100805.00
2023-05-22T09:19:19.346Z,100809.00
2023-05-22T09:21:48.051Z,100812.00
2023-05-22T09:24:15.266Z,100808.00
2023-05-22T09:26:42.588Z,100798.00
2023-05-22T09:29:10.053Z,100786.00
2023-05-22T09:31:44.800Z,100792.00
2023-05-22T09:34:15.983Z,100791.00
2023-05-22T09:36:43.661Z,100786.00
2023-05-22T09:39:11.157Z,100790.00
2023-05-22T09:41:40.208Z,100781.00
2023-05-22T09:44:15.554Z,100792.00
2023-05-22T09:46:46.510Z,100787.00
2023-05-22T09:49:16.454Z,100788.00
2023-05-22T09:51:49.441Z,100791.00
2023-05-22T09:54:19.941Z,100759.00
2023-05-22T09:56:52.842Z,100793.00
2023-05-22T09:59:26.672Z,100771.00
2023-05-22T10:01:54.991Z,100773.00
2023-05-22T10:04:24.055Z,100765.00
2023-05-22T10:06:54.299Z,100768.00
2023-05-22T10:09:31.058Z,100766.00
2023-05-22T10:12:04.416Z,100763.00
2023-05-22T10:14:32.861Z,100755.00
2023-05-22T10:17:04.848Z,100754.00
2023-05-22T10:19:33.619Z,100756.00
2023-05-22T10:22:02.014Z,100765.00
2023-05-22T10:24:30.735Z,100754.00
2023-05-22T10:26:59.443Z,100742.00
2023-05-22T10:29:43.244Z,100743.00
2023-05-22T10:32:28.231Z,100747.00
2023-05-22T10:35:21.080Z,100749.00
2023-05-22T10:37:53.499Z,100737.00
2023-05-22T10:40:40.424Z,100745.00
2023-05-22T10:43:07.774Z,100739.00
2023-05-22T10:45:36.824Z,100727.00
2023-05-22T10:48:06.456Z,100741.00
2023-05-22T10:50:35.400Z,100728.00
2023-05-22T10:53:24.575Z,100723.00
2023-05-22T10:55:54.400Z,100723.00
2023-05-22T10:58:36.612Z,100729.00
2023-05-22T11:01:13.442Z,100731.00
2023-05-22T11:04:09.271Z,100720.00
2023-05-22T11:06:47.522Z,100732.00
2023-05-22T11:09:29.909Z,100714.00
2023-05-22T11:12:31.690Z,100720.00
2023-05-22T11:15:09.879Z,100706.00
2023-05-22T11:17:40.109Z,100711.00
2023-05-22T11:20:20.395Z,100700.00
2023-05-22T11:22:56.825Z,100711.00
2023-05-22T11:25:25.340Z,100702.00
2023-05-22T11:27:55.662Z,100707.00
2023-05-22T11:30:28.600Z,100701.00
2023-05-22T11:32:58.091Z,100705.00
2023-05-22T11:35:25.854Z,100701.00
2023-05-22T11:37:55.384Z,100695.00
2023-05-22T11:40:26.179Z,100706.00
2023-05-22T11:42:54.187Z,100700.00
2023-05-22T11:45:22.226Z,100696.00
2023-05-22T11:47:50.174Z,100699.00
2023-05-22T11:50:29.371Z,100702.00
2023-05-22T11:53:04.807Z,100694.00
2023-05-22T11:55:34.020Z,100693.00
2023-05-22T11:58:02.820Z,100694.00
2023-05-22T12:00:32.041Z,100681.00
2023-05-22T12:02:59.514Z,100684.00
2023-05-22T12:05:27.042Z,100678.00
2023-05-22T12:07:54.485Z,100683.00
2023-05-22T12:10:21.695Z,100690.00
2023-05-22T12:12:49.017Z,100668.00
2023-05-22T12:15:21.004Z,100674.00
2023-05-22T12:17:48.099Z,100670.00
2023-05-22T12:20:15.273Z,100672.00
2023-05-22T12:22:44.280Z,100678.00
2023-05-22T12:25:17.727Z,100668.00
2023-05-22T12:27:46.163Z,100667.00
2023-05-22T12:30:14.734Z,100681.00
2023-05-22T12:32:47.831Z,100673.00
2023-05-22T12:35:19.264Z,100678.00
2023-05-22T12:37:51.258Z,100679.00
2023-05-22T12:40:18.643Z,100665.00
2023-05-22T12:42:46.183Z,100665.00
2023-05-22T12:45:13.875Z,100666.00
2023-05-22T12:47:41.330Z,100669.00
2023-05-22T12:50:09.669Z,100661.00
2023-05-22T12:52:36.797Z,100656.00
2023-05-22T12:55:04.605Z,100658.00
2023-05-22T12:57:31.871Z,100658.00
2023-05-22T12:59:58.964Z,100654.00
2023-05-22T13:02:26.011Z,100654.00
2023-05-22T13:04:53.559Z,100650.00
2023-05-22T13:07:20.638Z,100651.00
2023-05-22T13:09:47.698Z,100650.00
2023-05-22T13:12:14.850Z,100652.00
2023-05-22T13:14:41.995Z,100653.00
2023-05-22T13:17:09.450Z,100647.00
2023-05-22T13:19:36.949Z,100640.00
2023-05-22T13:22:04.957Z,100642.00
2023-05-22T13:24:31.991Z,100642.00
2023-05-22T13:26:59.263Z,100636.00
2023-05-22T13:29:26.409Z,100632.00
2023-05-22T13:31:53.748Z,100624.00
2023-05-22T13:34:20.804Z,100631.00
2023-05-22T13:36:47.990Z,100624.00
2023-05-22T13:39:15.509Z,100626.00
2023-05-22T13:41:42.970Z,100622.00
2023-05-22T13:44:10.358Z,100623.00
2023-05-22T13:46:40.009Z,100621.00
2023-05-22T13:49:07.860Z,100623.00
2023-05-22T13:51:35.154Z,100620.00
2023-05-22T13:54:03.691Z,100625.00
2023-05-22T13:56:31.264Z,100629.00
2023-05-22T13:58:58.456Z,100624.00
2023-05-22T14:01:25.748Z,100621.00
2023-05-22T14:03:53.583Z,100623.00
2023-05-22T14:06:20.945Z,100619.00
2023-05-22T14:08:48.691Z,100621.00
2023-05-22T14:11:15.711Z,100623.00
2023-05-22T14:13:43.506Z,100623.00
2023-05-22T14:16:11.560Z,100612.00
2023-05-22T14:18:38.717Z,100612.00
2023-05-22T14:21:05.950Z,100607.00
2023-05-22T14:23:32.982Z,100605.00
2023-05-22T14:26:00.158Z,100598.00
2023-05-22T14:28:27.274Z,100601.00
2023-05-22T14:30:54.414Z,100604.00
2023-05-22T14:33:21.539Z,100605.00
2023-05-22T14:35:48.953Z,100605.00
2023-05-22T14:38:15.997Z,100606.00
2023-05-22T14:40:43.279Z,100600.00
2023-05-22T14:43:10.335Z,100600.00
2023-05-22T14:45:38.651Z,100596.00
2023-05-22T14:48:06.765Z,100583.00
2023-05-22T14:50:35.166Z,100588.00
2023-05-22T14:53:02.335Z,100589.00
2023-05-22T14:55:29.568Z,100596.00
2023-05-22T14:57:57.596Z,100591.00
2023-05-22T15:00:24.877Z,100578.00
2023-05-22T15:02:52.994Z,100578.00
2023-05-22T15:05:20.315Z,100582.00
2023-05-22T15:07:49.738Z,100578.00
2023-05-22T15:10:18.807Z,100561.00
2023-05-22T15:12:46.408Z,100581.00
2023-05-22T15:15:13.609Z,100579.00
2023-05-22T15:17:42.925Z,100571.00
2023-05-22T15:20:11.473Z,100572.00
2023-05-22T15:22:40.534Z,100562.00
2023-05-22T15:25:12.005Z,100550.00
2023-05-22T15:27:40.351Z,100562.00
2023-05-22T15:30:09.808Z,100562.00
2023-05-22T15:32:38.189Z,100572.00
2023-05-22T15:35:07.987Z,100566.00
2023-05-22T15:37:36.656Z,100564.00
2023-05-22T15:40:06.131Z,100556.00
2023-05-22T15:42:33.273Z,100557.00
2023-05-22T15:45:00.820Z,100551.00
2023-05-22T15:47:28.953Z,100548.00
2023-05-22T15:49:56.099Z,100554.00
2023-05-22T15:52:24.495Z,100535.00
2023-05-22T15:54:51.696Z,100547.00
2023-05-22T15:57:18.905Z,100552.00
2023-05-22T15:59:47.597Z,100545.00
2023-05-22T16:02:14.847Z,100512.00
2023-05-22T16:04:42.607Z,100541.00
2023-05-22T16:07:09.807Z,100542.00
2023-05-22T16:09:37.263Z,100535.00
2023-05-22T16:12:05.121Z,100540.00
2023-05-22T16:14:32.255Z,100536.00
2023-05-22T16:16:59.623Z,100535.00
2023-05-22T16:19:29.145Z,100531.00
2023-05-22T16:21:56.699Z,100535.00
2023-05-22T16:24:24.113Z,100533.00
2023-05-22T16:26:51.234Z,100525.00
2023-05-22T16:29:21.782Z,100537.00
2023-05-22T16:31:49.031Z,100532.00
2023-05-22T16:34:16.311Z,100534.00
2023-05-22T16:36:43.430Z,100532.00
2023-05-22T16:39:10.684Z,100526.00
2023-05-22T16:41:38.235Z,100533.00
2023-05-22T16:44:05.582Z,100525.00
2023-05-22T16:46:33.111Z,100530.00
2023-05-22T16:49:00.290Z,100536.00
2023-05-22T16:51:27.490Z,100529.00
2023-05-22T16:53:54.475Z,100533.00
2023-05-22T16:56:21.771Z,100533.00
2023-05-22T16:58:49.082Z,100525.00
2023-05-22T17:01:16.317Z,100531.00
2023-05-22T17:03:45.732Z,100535.00
2023-05-22T17:06:12.826Z,100532.00
2023-05-22T17:08:40.063Z,100525.00
2023-05-22T17:11:07.270Z,100527.00
2023-05-22T17:13:34.874Z,100529.00
2023-05-22T17:16:02.596Z,100525.00
2023-05-22T17:18:31.858Z,100533.00
2023-05-22T17:21:00.447Z,100531.00
2023-05-22T17:23:27.690Z,100524.00
2023-05-22T17:25:55.362Z,100521.00
2023-05-22T17:28:22.507Z,100529.00
2023-05-22T17:30:50.448Z,100519.00
2023-05-22T17:33:18.009Z,100530.00
2023-05-22T17:35:45.218Z,100525.00
2023-05-22T17:38:12.307Z,100530.00
2023-05-22T17:40:44.870Z,100531.00
2023-05-22T17:43:14.012Z,100528.00
2023-05-22T17:45:41.729Z,100527.00
2023-05-22T17:48:09.363Z,100522.00
2023-05-22T17:50:36.565Z,100524.00
2023-05-22T17:53:03.981Z,100526.00
2023-05-22T17:55:31.053Z,100524.00
2023-05-22T17:57:59.760Z,100522.00
2023-05-22T18:00:26.847Z,100473.00
2023-05-22T18:02:54.005Z,100524.00
2023-05-22T18:05:21.352Z,100523.00
2023-05-22T18:07:48.850Z,100522.00
2023-05-22T18:10:16.862Z,100525.00
2023-05-22T18:12:43.996Z,100525.00
2023-05-22T18:15:12.416Z,100523.00
2023-05-22T18:17:41.166Z,100517.00
2023-05-22T18:20:12.118Z,100511.00
2023-05-22T18:22:40.525Z,100497.00
2023-05-22T18:25:08.637Z,100515.00
2023-05-22T18:27:36.656Z,100510.00
2023-05-22T18:30:05.296Z,100512.00
2023-05-22T18:32:32.935Z,100512.00
2023-05-22T18:35:02.507Z,100519.00
2023-05-22T18:37:29.683Z,100511.00
2023-05-22T18:39:56.678Z,100508.00
2023-05-22T18:42:25.312Z,100506.00
2023-05-22T18:44:52.526Z,100504.00
2023-05-22T18:47:19.875Z,100502.00
2023-05-22T18:49:47.143Z,100499.00
2023-05-22T18:52:14.272Z,100505.00
2023-05-22T18:54:41.448Z,100506.00
2023-05-22T18:57:08.741Z,100514.00
2023-05-22T18:59:37.416Z,100501.00
2023-05-22T19:02:04.762Z,100514.00
2023-05-22T19:04:31.956Z,100507.00
2023-05-22T19:06:59.144Z,100501.00
2023-05-22T19:09:27.598Z,100509.00
2023-05-22T19:11:57.856Z,100503.00
2023-05-22T19:14:25.014Z,100507.00
2023-05-22T19:16:52.273Z,100504.00
2023-05-22T19:19:19.478Z,100503.00
2023-05-22T19:21:46.678Z,100501.00
2023-05-22T19:24:14.242Z,100506.00
2023-05-22T19:26:42.125Z,100504.00
2023-05-22T19:29:09.959Z,100486.00
2023-05-22T19:31:37.027Z,100499.00
2023-05-22T19:34:04.975Z,100499.00
2023-05-22T19:36:32.896Z,100492.00
2023-05-22T19:39:00.008Z,100502.00
2023-05-22T19:41:27.176Z,100502.00
2023-05-22T19:43:54.509Z,100501.00
2023-05-22T19:46:23.027Z,100492.00
2023-05-22T19:48:50.153Z,100494.00
2023-05-22T19:51:17.177Z,100494.00
2023-05-22T19:53:44.567Z,100490.00
2023-05-22T19:56:12.093Z,100490.00
2023-05-22T19:58:40.005Z,100490.00
2023-05-22T20:01:07.381Z,100488.00
2023-05-22T20:03:35.100Z,100481.00
2023-05-22T20:06:03.073Z,100484.00
2023-05-22T20:08:30.548Z,100496.00
2023-05-22T20:10:57.865Z,100483.00
2023-05-22T20:13:24.993Z,100490.00
2023-05-22T20:15:53.425Z,100489.00
2023-05-22T20:18:22.661Z,100488.00
2023-05-22T20:20:49.837Z,100488.00
2023-05-22T20:23:17.442Z,100488.00
2023-05-22T20:25:44.940Z,100482.00
2023-05-22T20:28:12.011Z,100460.00
2023-05-22T20:30:39.391Z,100481.00
2023-05-22T20:33:06.453Z,100468.00
2023-05-22T20:35:34.069Z,100467.00
2023-05-22T20:38:04.295Z,100471.00
2023-05-22T20:40:32.661Z,100476.00
2023-05-22T20:43:02.743Z,100475.00
2023-05-22T20:45:30.726Z,100472.00
2023-05-22T20:47:58.058Z,100470.00
2023-05-22T20:50:25.133Z,100460.00
2023-05-22T20:52:52.825Z,100467.00
2023-05-22T20:55:19.878Z,100465.00
2023-05-22T20:57:46.925Z,100462.00
2023-05-22T21:00:14.702Z,100412.00
2023-05-22T21:02:41.792Z,100453.00
2023-05-22T21:05:09.609Z,100460.00
2023-05-22T21:07:36.769Z,100466.00
2023-05-22T21:10:04.527Z,100456.00
2023-05-22T21:12:31.550Z,100452.00
2023-05-22T21:14:58.898Z,100456.00
2023-05-22T21:17:26.114Z,100456.00
2023-05-22T21:19:53.240Z,100470.00
2023-05-22T21:22:20.469Z,100459.00
2023-05-22T21:24:47.967Z,100460.00
2023-05-22T21:27:15.340Z,100465.00
2023-05-22T21:29:42.422Z,100460.00
2023-05-22T21:32:09.980Z,100462.00
2023-05-22T21:34:36.918Z,100462.00
2023-05-22T21:37:04.173Z,100456.00
2023-05-22T21:39:31.522Z,100455.00
2023-05-22T21:41:58.700Z,100439.00
2023-05-22T21:44:25.869Z,100442.00
2023-05-22T21:46:52.931Z,100443.00
2023-05-22T21:49:20.167Z,100446.00
2023-05-22T21:51:47.493Z,100442.00
2023-05-22T21:54:14.556Z,100426.00
2023-05-22T21:56:41.757Z,100445.00
2023-05-22T21:59:09.089Z,100454.00
2023-05-22T22:01:36.303Z,100442.00
2023-05-22T22:04:03.735Z,100437.00
2023-05-22T22:06:31.346Z,100445.00
2023-05-22T22:08:59.885Z,100437.00
2023-05-22T22:11:27.556Z,100440.00
2023-05-22T22:13:55.052Z,100442.00
2023-05-22T22:16:22.352Z,100442.00
2023-05-22T22:18:50.448Z,100439.00
2023-05-22T22:21:17.934Z,100451.00
2023-05-22T22:23:45.113Z,100440.00
2023-05-22T22:26:12.791Z,100430.00
2023-05-22T22:28:39.875Z,100427.00
2023-05-22T22:31:06.970Z,100428.00
2023-05-22T22:33:34.262Z,100427.00
2023-05-22T22:36:01.881Z,100422.00
2023-05-22T22:38:32.754Z,100419.00
2023-05-22T22:41:01.054Z,100420.00
2023-05-22T22:43:28.211Z,100425.00
2023-05-22T22:45:56.211Z,100414.00
2023-05-22T22:48:23.506Z,100416.00
2023-05-22T22:50:52.463Z,100416.00
2023-05-22T22:53:19.818Z,100415.00
2023-05-22T22:55:56.787Z,100411.00
2023-05-22T22:58:24.029Z,100416.00
2023-05-22T23:00:51.107Z,100416.00
2023-05-22T23:03:18.154Z,100419.00
2023-05-22T23:05:45.449Z,100420.00
2023-05-22T23:08:12.892Z,100420.00
2023-05-22T23:10:40.324Z,100414.00
2023-05-22T23:13:07.395Z,100418.00
2023-05-22T23:15:34.760Z,100420.00
2023-05-22T23:18:02.006Z,100404.00
2023-05-22T23:20:29.322Z,100400.00
2023-05-22T23:22:56.305Z,100398.00
2023-05-22T23:25:23.326Z,100398.00
2023-05-22T23:27:50.712Z,100391.00
2023-05-22T23:30:17.821Z,100392.00
2023-05-22T23:32:44.871Z,100386.00
2023-05-22T23:35:12.082Z,100369.00
2023-05-22T23:37:39.132Z,100370.00
2023-05-22T23:40:07.859Z,100390.00
2023-05-22T23:42:36.176Z,100393.00
2023-05-22T23:45:04.554Z,100384.00
2023-05-22T23:47:31.802Z,100382.00
2023-05-22T23:49:59.697Z,100380.00
2023-05-22T23:52:27.400Z,100384.00
2023-05-22T23:54:54.557Z,100376.00
2023-05-22T23:57:21.646Z,100379.00
2023-05-22T23:59:48.694Z,100375.00
